Time;durP1;ratioP1;P1;durP2;ratioP2;P2;SDS_P1;SDS_P2;PMS_P1;PMS_P2;Temp;Humidity;BMP_temperature;BMP_pressure;BME280_temperature;BME280_humidity;BME280_pressure;Samples;Min_cycle;Max_cycle;Signal;HPM_P1;HPM_P2
2022/06/07 00:02:09;;;;;;;9.57;5.53;;;;;;;13.62;66.16;99622.41;4864859;29;20048;-85
2022/06/07 00:04:38;;;;;;;11.23;4.45;;;;;;;13.79;65.18;99642.75;4855432;29;20055;-84
2022/06/07 00:07:07;;;;;;;14.65;4.70;;;;;;;13.80;65.25;99645.16;4817574;29;20043;-85
2022/06/07 00:09:34;;;;;;;10.18;5.20;;;;;;;13.83;65.73;99650.00;4866674;29;20048;-85
2022/06/07 00:12:00;;;;;;;;;;;;;;;13.90;65.10;99651.44;4838450;29;20077;-84
2022/06/07 00:14:27;;;;;;;20.48;5.10;;;;;;;13.92;64.97;99651.94;4837882;29;19920;-85
2022/06/07 00:16:54;;;;;;;11.05;5.50;;;;;;;13.86;65.40;99649.34;4834892;29;20041;-84
2022/06/07 00:19:23;;;;;;;8.95;4.85;;;;;;;13.84;65.12;99659.88;4821583;29;20045;-85
2022/06/07 00:21:49;;;;;;;20.20;6.32;;;;;;;13.84;65.29;99640.63;4819516;29;20507;-86
2022/06/07 00:24:15;;;;;;;11.98;5.25;;;;;;;13.95;65.29;99662.28;4816786;29;20086;-84
2022/06/07 00:26:42;;;;;;;19.40;5.40;;;;;;;13.81;65.39;99641.28;4829332;29;20033;-83
2022/06/07 00:29:10;;;;;;;12.00;5.45;;;;;;;13.93;65.44;99653.53;4847672;29;20094;-84
2022/06/07 00:31:40;;;;;;;10.73;5.63;;;;;;;13.82;65.63;99642.91;4862735;29;20045;-85
2022/06/07 00:34:07;;;;;;;13.68;5.30;;;;;;;13.88;66.00;99656.47;4861698;29;20316;-84
2022/06/07 00:36:35;;;;;;;13.60;5.20;;;;;;;13.85;65.88;99653.22;4863782;29;20037;-84
2022/06/07 00:39:03;;;;;;;15.15;5.05;;;;;;;13.83;66.18;99658.25;4850299;29;20072;-84
2022/06/07 00:41:29;;;;;;;13.90;5.18;;;;;;;13.75;66.01;99644.53;4861312;29;20175;-85
2022/06/07 00:44:23;;;;;;;11.13;5.55;;;;;;;13.83;66.37;99657.44;4845737;29;20146;-85
2022/06/07 00:46:54;;;;;;;9.82;4.93;;;;;;;13.68;66.25;99639.53;4860274;29;20049;-87
2022/06/07 00:49:22;;;;;;;20.30;4.90;;;;;;;13.81;66.18;99657.78;4859679;29;20065;-86
2022/06/07 00:51:49;;;;;;;8.43;5.22;;;;;;;13.84;66.19;99661.78;4871410;29;20045;-84
2022/06/07 00:54:25;;;;;;;10.05;4.63;;;;;;;13.87;66.06;99658.38;4832126;29;20523;-84
2022/06/07 00:57:00;;;;;;;10.98;5.25;;;;;;;13.90;65.95;99660.50;4834553;29;20065;-85
2022/06/07 00:59:30;;;;;;;17.00;5.60;;;;;;;13.94;65.86;99661.47;4838589;29;20129;-86
2022/06/07 01:01:59;;;;;;;14.73;5.50;;;;;;;13.94;66.04;99655.97;4868346;29;20049;-86
2022/06/07 01:04:27;;;;;;;12.82;5.03;;;;;;;13.96;65.70;99658.38;4830317;29;20041;-84
2022/06/07 01:12:32;;;;;;;10.70;5.45;;;;;;;14.09;65.61;99652.69;4845006;29;20109;-86
2022/06/07 01:14:59;;;;;;;10.20;5.40;;;;;;;14.04;65.97;99643.81;4819426;29;20072;-85
2022/06/07 01:17:27;;;;;;;13.93;4.97;;;;;;;13.96;64.59;99631.69;4874704;29;20049;-85
2022/06/07 01:19:53;;;;;;;11.00;4.75;;;;;;;14.12;65.15;99658.69;4843942;29;20128;-85
2022/06/07 01:22:22;;;;;;;12.68;6.25;;;;;;;14.14;64.25;99654.47;4845645;29;20073;-86
2022/06/07 01:24:48;;;;;;;8.90;4.63;;;;;;;14.20;64.31;99655.88;4827447;29;20049;-85
2022/06/07 01:27:15;;;;;;;11.65;4.15;;;;;;;14.20;63.98;99655.88;4844162;29;20042;-84
2022/06/07 01:29:42;;;;;;;11.40;4.90;;;;;;;14.11;63.50;99630.38;4818489;29;20562;-84
2022/06/07 01:32:14;;;;;;;8.88;4.85;;;;;;;14.29;63.90;99653.09;4837185;29;20037;-84
2022/06/07 01:34:44;;;;;;;19.30;5.82;;;;;;;14.31;63.52;99653.59;4861647;29;20041;-85
2022/06/07 01:37:14;;;;;;;11.30;4.45;;;;;;;14.31;63.10;99650.84;4860301;29;20049;-86
2022/06/07 01:42:29;;;;;;;18.55;4.97;;;;;;;14.30;62.13;99657.47;4866255;29;20073;-87
2022/06/07 01:44:56;;;;;;;10.73;4.00;;;;;;;14.38;61.31;99666.84;4866993;29;20572;-84
2022/06/07 01:47:29;;;;;;;11.75;4.72;;;;;;;14.38;61.63;99664.09;4833432;29;20161;-85
2022/06/07 01:49:58;;;;;;;10.60;4.40;;;;;;;14.42;61.76;99667.78;4863494;29;20077;-85
2022/06/07 01:52:28;;;;;;;15.02;4.72;;;;;;;14.42;61.10;99667.78;4860224;29;20042;-85
2022/06/07 01:55:01;;;;;;;13.05;4.68;;;;;;;14.38;59.88;99653.88;4990050;23;20434;-86
2022/06/07 01:57:33;;;;;;;9.77;4.00;;;;;;;14.44;59.96;99662.78;4822898;29;20038;-85
2022/06/07 02:00:07;;;;;;;9.32;4.20;;;;;;;14.45;59.06;99664.38;4858307;29;20068;-85
2022/06/07 02:02:40;;;;;;;9.45;4.82;;;;;;;14.27;59.96;99636.94;4859105;29;20050;-84
2022/06/07 02:05:09;;;;;;;12.05;4.10;;;;;;;14.45;59.41;99669.88;4827651;29;20048;-85
2022/06/07 02:07:37;;;;;;;13.13;3.85;;;;;;;14.48;59.64;99669.22;4811803;29;20042;-85
2022/06/07 02:10:07;;;;;;;12.05;3.78;;;;;;;14.48;59.07;99674.72;4819423;29;20072;-85
2022/06/07 02:12:34;;;;;;;20.83;5.00;;;;;;;14.53;58.97;99682.81;4858819;29;20049;-85
2022/06/07 02:15:01;;;;;;;10.82;4.03;;;;;;;14.39;58.11;99662.94;4842168;29;20042;-86
2022/06/07 02:17:28;;;;;;;10.55;3.97;;;;;;;14.51;59.08;99682.34;4842984;29;20042;-87
2022/06/07 02:20:06;;;;;;;11.95;3.85;;;;;;;14.50;58.53;99681.53;4844615;29;20060;-85
2022/06/07 02:22:33;;;;;;;;;;;;;;;14.49;57.82;99677.13;4859795;29;20124;-85
2022/06/07 02:25:00;;;;;;;7.68;3.90;;;;;;;14.48;57.23;99664.53;4859180;29;20064;-87
2022/06/07 02:27:28;;;;;;;8.95;3.88;;;;;;;14.53;57.47;99677.31;4859646;29;20146;-85
2022/06/07 02:29:55;;;;;;;5.97;3.42;;;;;;;14.48;57.43;99660.97;4859082;29;20503;-87
2022/06/07 02:32:27;;;;;;;8.85;3.92;;;;;;;14.62;57.78;99682.78;4856977;29;20045;-85
2022/06/07 02:34:57;;;;;;;9.32;3.40;;;;;;;14.58;58.63;99668.88;4857067;29;20041;-83
2022/06/07 02:37:28;;;;;;;16.90;3.78;;;;;;;14.66;58.07;99680.97;4858681;29;20515;-83
2022/06/07 02:39:56;;;;;;;8.73;3.58;;;;;;;14.70;57.16;99676.41;4858751;29;20121;-83
2022/06/07 02:42:27;;;;;;;7.70;3.20;;;;;;;14.67;56.18;99688.06;4858666;29;20038;-88
2022/06/07 02:44:59;;;;;;;5.85;3.08;;;;;;;14.69;56.57;99685.81;4812312;29;20085;-82
2022/06/07 02:47:26;;;;;;;8.98;3.45;;;;;;;14.60;55.02;99691.34;4840994;29;20496;-84
2022/06/07 02:49:58;;;;;;;6.72;2.78;;;;;;;14.54;55.58;99674.25;4858499;29;20587;-86
2022/06/07 02:52:26;;;;;;;11.25;3.08;;;;;;;14.51;54.74;99665.84;4841690;29;20092;-83
2022/06/07 02:55:09;;;;;;;18.08;3.42;;;;;;;14.61;54.58;99684.72;4842737;29;20539;-83
2022/06/07 02:57:38;;;;;;;5.82;2.80;;;;;;;14.60;53.07;99693.28;4826793;29;20044;-85
2022/06/07 03:00:06;;;;;;;9.00;3.05;;;;;;;14.56;53.22;99684.91;4829367;29;20080;-86
2022/06/07 03:02:33;;;;;;;10.90;2.88;;;;;;;14.59;53.46;99694.44;4815767;29;20128;-86
2022/06/07 03:04:59;;;;;;;10.70;2.67;;;;;;;14.59;52.59;99691.69;4815469;29;20041;-85
2022/06/07 03:07:26;;;;;;;;;;;;;;;14.59;52.91;99692.50;4827924;29;20038;-85
2022/06/07 03:09:54;;;;;;;13.80;2.53;;;;;;;14.64;52.75;99688.78;4857834;29;19973;-85
2022/06/07 03:12:21;;;;;;;9.30;2.70;;;;;;;14.68;52.51;99696.03;4862204;29;20045;-85
2022/06/07 03:14:47;;;;;;;8.50;2.87;;;;;;;14.60;51.94;99679.53;4815560;29;20037;-86
2022/06/07 03:17:16;;;;;;;6.18;2.42;;;;;;;14.69;52.08;99683.06;4829964;29;20048;-84
2022/06/07 03:19:42;;;;;;;9.68;2.60;;;;;;;14.60;50.72;99672.09;4845313;29;20041;-85
2022/06/07 03:22:09;;;;;;;6.75;3.33;;;;;;;14.70;50.60;99704.75;4815593;29;20038;-84
2022/06/07 03:24:37;;;;;;;10.32;2.28;;;;;;;14.71;50.14;99694.56;4815717;29;20086;-84
2022/06/07 03:27:05;;;;;;;8.35;2.92;;;;;;;14.57;49.73;99679.09;4824733;29;20042;-85
2022/06/07 03:29:32;;;;;;;15.77;2.50;;;;;;;14.71;49.58;99698.09;4830199;29;20419;-84
2022/06/07 03:31:59;;;;;;;9.55;2.25;;;;;;;14.65;49.15;99707.69;4846337;29;20041;-85
2022/06/07 03:34:27;;;;;;;7.47;2.10;;;;;;;14.72;49.34;99710.72;4815161;29;20041;-85
2022/06/07 03:36:53;;;;;;;;;;;;;;;14.78;49.70;99708.59;4811227;29;20045;-84
2022/06/07 03:39:22;;;;;;;8.63;2.53;;;;;;;14.75;49.95;99712.81;4844972;29;19928;-88
2022/06/07 03:41:56;;;;;;;5.63;2.38;;;;;;;14.75;49.64;99709.25;4861526;29;20128;-86
2022/06/07 03:44:27;;;;;;;8.68;2.83;;;;;;;14.78;49.39;99717.66;4828141;29;20056;-86
2022/06/07 03:47:08;;;;;;;12.23;2.50;;;;;;;14.80;49.54;99695.28;4842483;29;20049;-85
2022/06/07 03:49:35;;;;;;;11.68;2.75;;;;;;;14.89;49.68;99714.53;4812198;29;20050;-88
2022/06/07 03:52:02;;;;;;;15.88;2.60;;;;;;;14.94;49.74;99711.59;4829258;29;20037;-85
2022/06/07 03:54:33;;;;;;;9.75;2.17;;;;;;;15.02;49.30;99717.03;4965647;23;20016;-85
2022/06/07 03:57:00;;;;;;;4.90;2.50;;;;;;;15.06;48.90;99705.38;4850516;29;20504;-85
2022/06/07 03:59:27;;;;;;;8.77;2.33;;;;;;;15.14;49.07;99710.81;4865013;29;20052;-85
2022/06/07 04:01:55;;;;;;;10.90;2.80;;;;;;;15.10;49.23;99717.31;4853340;29;20041;-86
2022/06/07 04:04:22;;;;;;;12.88;2.80;;;;;;;15.16;48.69;99718.75;4853993;29;20049;-85
2022/06/07 04:09:42;;;;;;;4.63;2.70;;;;;;;15.37;49.10;99718.78;4860249;29;20057;-88
2022/06/07 04:12:18;;;;;;;17.27;2.92;;;;;;;15.24;48.68;99691.16;4828300;29;20056;-86
2022/06/07 04:14:48;;;;;;;11.00;2.60;;;;;;;15.44;48.11;99727.31;4847869;29;20045;-87
2022/06/07 04:17:15;;;;;;;8.82;2.38;;;;;;;15.55;49.14;99716.69;4846254;29;20526;-84
2022/06/07 04:19:47;;;;;;;10.70;2.67;;;;;;;15.56;47.03;99705.31;4816834;29;20452;-87
2022/06/07 04:22:15;;;;;;;15.50;2.65;;;;;;;15.53;47.12;99711.53;4849465;29;20141;-85
2022/06/07 04:24:49;;;;;;;17.08;2.85;;;;;;;15.59;46.86;99717.63;4830147;29;20048;-85
2022/06/07 04:27:18;;;;;;;11.50;2.90;;;;;;;15.54;47.30;99704.88;4867963;29;20535;-86
2022/06/07 04:29:48;;;;;;;18.95;2.95;;;;;;;15.64;47.17;99711.94;4845986;29;20057;-86
2022/06/07 04:32:16;;;;;;;14.23;3.20;;;;;;;15.71;47.53;99698.44;4852934;29;20037;-86
2022/06/07 04:34:45;;;;;;;11.35;2.67;;;;;;;15.92;46.67;99710.22;4844873;29;20102;-83
2022/06/07 04:37:14;;;;;;;12.48;2.80;;;;;;;15.98;45.88;99708.88;4830143;29;20053;-84
2022/06/07 04:39:41;;;;;;;15.55;2.92;;;;;;;15.98;46.05;99708.88;4853264;29;20613;-82
2022/06/07 04:42:10;;;;;;;8.60;2.50;;;;;;;15.99;46.45;99717.94;4845105;29;20144;-85
2022/06/07 04:44:59;;;;;;;8.68;2.40;;;;;;;15.89;45.47;99699.91;4856119;29;20495;-86
2022/06/07 04:47:49;;;;;;;7.05;2.47;;;;;;;16.06;45.62;99717.38;5252195;23;20054;-84
2022/06/07 04:50:18;;;;;;;13.45;2.72;;;;;;;16.12;45.70;99725.13;4843858;29;20591;-85
2022/06/07 04:52:46;;;;;;;14.80;3.47;;;;;;;16.25;46.20;99725.16;4843332;29;20045;-85
2022/06/07 04:55:15;;;;;;;12.05;2.67;;;;;;;16.27;44.74;99728.41;4822667;29;20424;-85
2022/06/07 04:57:42;;;;;;;6.60;2.47;;;;;;;16.28;45.80;99707.94;4813837;29;20065;-84
2022/06/07 05:00:18;;;;;;;12.43;2.83;;;;;;;16.45;45.84;99721.53;4857039;29;20053;-87
2022/06/07 05:02:53;;;;;;;25.50;3.42;;;;;;;16.48;45.93;99720.84;4815940;29;20038;-84
2022/06/07 05:05:21;;;;;;;19.23;3.15;;;;;;;16.56;44.62;99719.94;4809801;29;20067;-85
2022/06/07 05:07:48;;;;;;;11.57;2.90;;;;;;;16.57;43.37;99721.56;4828612;29;20045;-84
2022/06/07 05:10:18;;;;;;;10.30;3.38;;;;;;;16.55;41.64;99721.06;4822400;29;20037;-85
2022/06/07 05:12:51;;;;;;;24.40;3.22;;;;;;;16.49;41.41;99705.91;4814695;29;20136;-84
2022/06/07 05:15:20;;;;;;;29.13;3.47;;;;;;;16.59;41.24;99708.22;4858699;29;20141;-85
2022/06/07 05:17:52;;;;;;;19.00;3.08;;;;;;;16.55;41.38;99703.72;4819166;29;20051;-85
2022/06/07 05:20:22;;;;;;;29.67;3.60;;;;;;;16.75;42.39;99716.63;4827638;29;20480;-84
2022/06/07 05:22:54;;;;;;;12.02;2.72;;;;;;;16.95;41.89;99725.97;4859124;29;20054;-86
2022/06/07 05:25:22;;;;;;;8.52;2.55;;;;;;;16.84;40.02;99708.25;4813549;29;20026;-89
2022/06/07 05:27:50;;;;;;;24.65;2.90;;;;;;;16.89;40.14;99721.84;4813833;29;20041;-91
2022/06/07 05:30:23;;;;;;;22.00;2.60;;;;;;;16.87;39.54;99708.38;4826923;29;20049;-89
2022/06/07 05:32:55;;;;;;;9.25;2.05;;;;;;;16.80;37.82;99716.41;4840559;29;20041;-86
2022/06/07 05:35:31;;;;;;;12.02;2.17;;;;;;;16.86;39.33;99708.72;4822453;29;20050;-87
2022/06/07 05:38:06;;;;;;;13.23;2.30;;;;;;;16.90;38.30;99710.44;4805987;29;20073;-86
2022/06/07 05:40:35;;;;;;;21.05;2.90;;;;;;;16.96;37.90;99713.78;4823265;29;20689;-87
2022/06/07 05:43:03;;;;;;;13.98;2.38;;;;;;;17.07;38.59;99712.16;4825706;29;20105;-86
2022/06/07 05:45:36;;;;;;;10.57;1.80;;;;;;;17.07;38.73;99690.06;4810698;29;20049;-86
2022/06/07 05:48:09;;;;;;;4.10;1.77;;;;;;;17.28;35.96;99725.81;4855389;29;20041;-84
2022/06/07 05:50:44;;;;;;;14.60;2.05;;;;;;;17.26;36.61;99717.09;4821667;29;20118;-87
2022/06/07 05:53:11;;;;;;;15.13;2.20;;;;;;;17.12;35.68;99698.13;4840360;29;20090;-87
2022/06/07 05:55:40;;;;;;;7.82;1.90;;;;;;;17.34;36.95;99723.63;4808803;29;20133;-87
2022/06/07 05:58:07;;;;;;;10.82;2.38;;;;;;;17.26;36.53;99691.41;4828206;29;20404;-86
2022/06/07 06:00:36;;;;;;;23.38;3.10;;;;;;;17.43;37.25;99720.75;4854659;29;20068;-83
2022/06/07 06:03:05;;;;;;;18.77;2.40;;;;;;;17.48;37.09;99707.50;4854720;29;20080;-86
2022/06/07 06:05:47;;;;;;;16.63;2.10;;;;;;;17.61;37.48;99705.47;4840402;29;20517;-85
2022/06/07 06:11:15;;;;;;;3.13;1.67;;;;;;;17.59;34.71;99707.81;4856051;29;20048;-84
2022/06/07 06:13:52;;;;;;;29.98;3.15;;;;;;;17.65;35.40;99713.88;4824282;29;20049;-84
2022/06/07 06:16:20;;;;;;;60.10;5.45;;;;;;;17.55;34.91;99716.00;4854912;29;20583;-85
2022/06/07 06:18:53;;;;;;;22.40;3.28;;;;;;;17.59;35.76;99705.84;4839967;29;20136;-85
2022/06/07 06:21:26;;;;;;;14.43;1.88;;;;;;;17.72;35.15;99708.56;4854703;29;20041;-85
2022/06/07 06:23:53;;;;;;;11.63;2.10;;;;;;;17.80;34.32;99713.16;4853603;29;20544;-87
2022/06/07 06:26:20;;;;;;;15.93;2.33;;;;;;;17.88;33.98;99705.88;4826879;29;20141;-85
2022/06/07 06:28:49;;;;;;;11.00;2.15;;;;;;;17.96;34.59;99705.72;4939253;23;20076;-88
2022/06/07 06:31:16;;;;;;;28.00;2.63;;;;;;;18.08;34.55;99700.13;4837192;29;20103;-85
2022/06/07 06:33:46;;;;;;;8.13;1.48;;;;;;;18.04;33.67;99706.72;4822158;29;20416;-85
2022/06/07 06:36:20;;;;;;;6.35;1.42;;;;;;;17.82;33.53;99697.03;4838139;29;20117;-88
2022/06/07 06:38:48;;;;;;;7.45;1.70;;;;;;;17.70;32.78;99688.75;4853446;29;20041;-85
2022/06/07 06:41:23;;;;;;;5.78;1.48;;;;;;;17.81;33.06;99689.88;4837367;29;20045;-84
2022/06/07 06:43:51;;;;;;;;;;;;;;;17.84;33.72;99703.78;4837116;29;20069;-84
2022/06/07 06:46:42;;;;;;;3.80;1.67;;;;;;;17.77;32.96;99686.22;4828290;29;19920;-84
2022/06/07 06:49:12;;;;;;;7.68;1.50;;;;;;;18.04;33.95;99703.94;4864909;23;20078;-86
2022/06/07 06:51:41;;;;;;;7.30;1.92;;;;;;;18.07;32.71;99692.97;4860796;29;20515;-84
2022/06/07 06:54:16;;;;;;;9.30;1.70;;;;;;;18.06;32.81;99694.13;4839738;29;20048;-83
2022/06/07 06:56:56;;;;;;;5.88;1.77;;;;;;;18.09;33.07;99692.63;4879301;29;20041;-83
2022/06/07 06:59:26;;;;;;;13.13;2.10;;;;;;;18.14;33.02;99688.78;4858842;29;20045;-85
2022/06/07 07:01:57;;;;;;;23.52;2.70;;;;;;;18.20;31.64;99687.38;4860200;29;20400;-84
2022/06/07 07:04:27;;;;;;;29.63;2.97;;;;;;;18.25;33.00;99690.69;4844197;29;20121;-85
2022/06/07 07:06:55;;;;;;;56.08;6.15;;;;;;;18.21;31.87;99694.50;4875501;29;20037;-89
2022/06/07 07:09:26;;;;;;;26.90;3.25;;;;;;;18.04;32.04;99693.69;4829728;29;20041;-87
2022/06/07 07:11:57;;;;;;;17.15;2.15;;;;;;;18.04;32.09;99695.66;4822800;29;20043;-85
2022/06/07 07:14:37;;;;;;;179.95;12.95;;;;;;;18.11;33.32;99690.31;4829567;29;20213;-85
2022/06/07 07:17:05;;;;;;;45.63;5.35;;;;;;;18.29;33.42;99696.31;4840097;29;20410;-86
2022/06/07 07:19:36;;;;;;;22.13;2.53;;;;;;;18.36;31.92;99685.44;4828949;29;20592;-88
2022/06/07 07:25:41;;;;;;;14.30;1.60;;;;;;;18.50;32.44;99687.75;6007360;23;20012;-84
2022/06/07 07:43:49;;;;;;;37.97;3.42;;;;;;;18.85;32.53;99671.25;4770881;29;20074;-82
2022/06/07 07:46:20;;;;;;;17.77;2.92;;;;;;;18.85;31.02;99678.75;4805138;29;20104;-82
2022/06/07 07:48:48;;;;;;;12.70;2.80;;;;;;;18.66;31.74;99687.75;4777417;29;20042;-83
2022/06/07 07:51:29;;;;;;;16.45;3.10;;;;;;;18.53;32.10;99674.00;4776912;29;20135;-82
2022/06/07 07:53:58;;;;;;;15.50;2.63;;;;;;;18.56;33.14;99678.03;4805883;29;20088;-83
2022/06/07 07:56:26;;;;;;;26.92;3.15;;;;;;;18.56;32.24;99675.25;4805900;29;20142;-83
2022/06/07 07:58:54;;;;;;;16.38;2.65;;;;;;;18.50;31.28;99655.34;4819506;29;20050;-83
2022/06/07 08:01:26;;;;;;;20.65;3.55;;;;;;;18.57;30.37;99667.75;4815274;29;20141;-84
2022/06/07 08:03:57;;;;;;;22.70;3.05;;;;;;;18.53;30.71;99653.81;4784052;29;20508;-82
2022/06/07 08:06:32;;;;;;;21.02;3.35;;;;;;;18.85;31.55;99673.22;4806200;29;20534;-84
2022/06/07 08:09:02;;;;;;;16.27;2.42;;;;;;;18.64;30.79;99662.38;4820987;29;20062;-81
2022/06/07 08:11:34;;;;;;;12.60;2.38;;;;;;;18.69;31.45;99673.19;4805702;29;20145;-82
2022/06/07 08:14:01;;;;;;;17.65;2.70;;;;;;;18.77;32.38;99661.97;4821171;29;20042;-82
2022/06/07 08:16:28;;;;;;;7.53;2.45;;;;;;;18.67;30.38;99654.16;4805501;29;20047;-80
2022/06/07 08:18:55;;;;;;;11.23;2.17;;;;;;;18.58;30.65;99655.53;4820840;29;20075;-83
2022/06/07 08:21:25;;;;;;;19.23;2.65;;;;;;;18.53;30.50;99635.25;4800304;29;20082;-82
2022/06/07 08:23:54;;;;;;;19.48;2.55;;;;;;;18.59;30.30;99657.13;4805152;29;20043;-83
2022/06/07 08:26:22;;;;;;;10.88;2.03;;;;;;;18.64;29.21;99643.81;4805542;29;20083;-83
2022/06/07 08:28:49;;;;;;;21.33;2.65;;;;;;;18.72;29.50;99651.16;4821432;29;20162;-84
2022/06/07 08:31:19;;;;;;;27.58;3.42;;;;;;;18.80;30.27;99649.34;4775331;29;20137;-86
2022/06/07 08:39:17;;;;;;;25.33;2.97;;;;;;;18.67;29.78;99639.50;4782993;29;20154;-83
2022/06/07 08:41:59;;;;;;;19.85;2.40;;;;;;;18.83;29.58;99637.56;4804660;29;20054;-83
2022/06/07 08:44:56;;;;;;;12.82;2.30;;;;;;;18.82;30.27;99647.03;4820770;29;20090;-82
2022/06/07 08:47:35;;;;;;;30.33;3.00;;;;;;;18.84;31.21;99636.41;4784285;29;20058;-86
2022/06/07 08:50:12;;;;;;;27.98;2.97;;;;;;;19.08;30.74;99642.88;4822901;29;20046;-84
2022/06/07 08:52:39;;;;;;;15.70;2.00;;;;;;;19.22;29.19;99627.34;4822837;29;20192;-82
2022/06/07 08:55:12;;;;;;;;;;;;;;;19.36;29.54;99643.47;4823037;29;20084;-84
2022/06/07 08:57:39;;;;;;;26.30;2.60;;;;;;;19.31;29.21;99637.44;4821820;29;19931;-83
2022/06/07 09:00:22;;;;;;;10.48;2.25;;;;;;;19.29;28.02;99640.56;4823915;29;20050;-83
2022/06/07 09:03:00;;;;;;;23.38;3.38;;;;;;;19.38;29.35;99645.91;4824064;29;20465;-84
2022/06/07 09:05:26;;;;;;;8.77;2.10;;;;;;;19.41;29.29;99639.63;4824093;29;20057;-84
2022/06/07 09:07:52;;;;;;;10.70;2.10;;;;;;;19.62;29.04;99634.50;4821367;29;20133;-81
2022/06/07 09:13:24;;;;;;;5.90;2.00;;;;;;;19.72;27.67;99622.03;4820574;29;20050;-84
2022/06/07 09:15:55;;;;;;;13.85;1.80;;;;;;;19.67;27.66;99627.91;4818374;29;20083;-80
2022/06/07 09:18:25;;;;;;;7.63;1.88;;;;;;;19.62;27.57;99604.00;4805263;29;20078;-80
2022/06/07 09:20:56;;;;;;;11.00;2.45;;;;;;;19.72;27.75;99622.03;4802272;29;20627;-82
2022/06/07 09:23:40;;;;;;;25.38;3.55;;;;;;;19.73;26.97;99609.78;4816796;29;20106;-85
2022/06/07 09:26:34;;;;;;;12.40;2.08;;;;;;;19.66;26.41;99627.06;4818065;29;20095;-79
2022/06/07 09:29:23;;;;;;;12.55;2.28;;;;;;;19.77;27.70;99620.94;4807873;29;20062;-80
2022/06/07 09:31:51;;;;;;;17.80;2.13;;;;;;;20.07;28.81;99608.03;4820419;29;20525;-84
2022/06/07 09:34:26;;;;;;;35.33;4.25;;;;;;;20.13;28.67;99605.72;4820229;29;20473;-81
2022/06/07 09:37:06;;;;;;;16.20;2.63;;;;;;;20.19;25.38;99616.16;4816949;29;20079;-82
2022/06/07 09:39:40;;;;;;;13.98;2.20;;;;;;;20.04;25.84;99600.44;4820034;29;20069;-83
2022/06/07 09:42:24;;;;;;;11.30;2.20;;;;;;;20.22;26.41;99609.06;4817887;29;20046;-84
2022/06/07 09:45:14;;;;;;;10.35;2.25;;;;;;;20.32;25.07;99599.31;4821654;29;20050;-84
2022/06/07 09:47:40;;;;;;;17.33;2.35;;;;;;;20.25;25.00;99601.97;4804077;29;20050;-83
2022/06/07 09:50:33;;;;;;;4.90;2.00;;;;;;;20.33;24.81;99604.50;4823591;29;20086;-84
2022/06/07 09:53:08;;;;;;;16.42;2.05;;;;;;;20.33;25.02;99610.06;4823487;29;20359;-84
2022/06/07 09:55:39;;;;;;;11.25;1.95;;;;;;;20.17;24.32;99614.94;4823385;29;20057;-83
2022/06/07 09:58:29;;;;;;;7.18;2.08;;;;;;;20.02;24.99;99608.31;4823227;29;20042;-83
2022/06/07 10:01:02;;;;;;;29.25;2.53;;;;;;;19.97;25.36;99594.78;4821635;29;20046;-82
2022/06/07 10:03:41;;;;;;;16.02;2.05;;;;;;;20.25;25.47;99600.00;4822589;29;20441;-84
2022/06/07 10:06:27;;;;;;;17.17;2.47;;;;;;;20.37;24.49;99599.81;4818553;29;20046;-81
2022/06/07 10:09:26;;;;;;;7.07;2.20;;;;;;;20.63;25.61;99601.03;4819694;29;20069;-82
2022/06/07 10:12:14;;;;;;;12.13;2.15;;;;;;;20.64;23.61;99599.88;4822989;29;20056;-84
2022/06/07 10:14:52;;;;;;;26.20;2.63;;;;;;;20.64;23.64;99595.09;4821573;29;20481;-80
2022/06/07 10:17:48;;;;;;;12.50;2.23;;;;;;;20.72;22.91;99601.56;4822036;29;20041;-83
2022/06/07 10:20:33;;;;;;;15.45;2.65;;;;;;;20.83;23.69;99590.63;4818624;29;20046;-82
2022/06/07 10:23:17;;;;;;;10.47;2.00;;;;;;;20.87;24.39;99592.25;4821231;29;20096;-83
2022/06/07 10:26:18;;;;;;;8.93;2.05;;;;;;;20.98;23.19;99586.03;4821470;29;20038;-81
2022/06/07 10:29:11;;;;;;;17.52;2.10;;;;;;;20.71;24.68;99566.63;4819384;29;20067;-80
2022/06/07 10:31:54;;;;;;;11.75;2.35;;;;;;;20.80;22.16;99581.06;4821631;29;20129;-81
2022/06/07 10:34:44;;;;;;;30.10;3.10;;;;;;;20.65;24.64;99574.47;4821718;29;20420;-83
2022/06/07 10:37:34;;;;;;;10.00;2.15;;;;;;;21.00;24.88;99581.72;4822017;29;20094;-82
2022/06/07 10:40:17;;;;;;;9.85;1.75;;;;;;;20.97;22.27;99587.22;4806318;29;20050;-81
2022/06/07 10:43:00;;;;;;;9.57;2.22;;;;;;;20.84;21.31;99569.97;4821107;29;20595;-84
2022/06/07 10:45:30;;;;;;;4.93;1.92;;;;;;;20.97;22.33;99574.13;4821628;29;20467;-81
2022/06/07 10:48:10;;;;;;;3.60;1.55;;;;;;;20.90;21.49;99584.38;4805548;29;20133;-82
2022/06/07 10:50:43;;;;;;;5.05;1.98;;;;;;;20.80;21.42;99569.13;4817875;29;20073;-82
2022/06/07 10:53:14;;;;;;;7.75;1.70;;;;;;;20.81;21.50;99565.97;4805771;29;20168;-82
2022/06/07 10:55:58;;;;;;;7.50;2.08;;;;;;;20.76;23.34;99562.72;4821586;29;21438;-82
2022/06/07 10:58:40;;;;;;;12.82;2.20;;;;;;;20.92;22.87;99562.53;4821653;29;20552;-81
2022/06/07 11:01:15;;;;;;;12.13;2.35;;;;;;;21.24;25.25;99571.28;4821372;29;20050;-80
2022/06/07 11:10:11;;;;;;;10.60;3.28;;;;;;;21.43;22.67;99567.59;4809041;29;20505;-80
2022/06/07 11:13:01;;;;;;;10.35;2.10;;;;;;;21.66;23.65;99559.88;4804695;29;20067;-79
2022/06/07 11:15:41;;;;;;;8.65;2.80;;;;;;;21.73;22.08;99559.97;4795107;29;20050;-80
2022/06/07 11:18:19;;;;;;;21.15;2.78;;;;;;;21.68;22.17;99554.72;4804750;29;20039;-80
2022/06/07 11:20:57;;;;;;;12.05;2.22;;;;;;;21.74;23.37;99547.63;4823012;29;20070;-79
2022/06/07 11:23:31;;;;;;;22.50;2.33;;;;;;;21.76;21.20;99547.28;4824591;29;20408;-84
2022/06/07 11:26:04;;;;;;;17.98;2.38;;;;;;;21.90;22.80;99560.50;4807565;29;20046;-81
2022/06/07 11:28:39;;;;;;;34.10;2.72;;;;;;;22.13;22.49;99551.97;4824519;29;20156;-83
2022/06/07 11:31:41;;;;;;;27.13;3.55;;;;;;;21.99;20.59;99561.00;4821223;29;20042;-83
2022/06/07 11:34:43;;;;;;;11.63;2.30;;;;;;;22.00;21.66;99543.09;4796208;29;20051;-82
2022/06/07 11:37:16;;;;;;;8.05;2.13;;;;;;;22.16;22.23;99549.25;4749932;30;20055;-83
2022/06/07 11:39:44;;;;;;;20.88;3.10;;;;;;;22.42;21.95;99548.25;4812150;29;20508;-84
2022/06/07 11:42:12;;;;;;;19.33;2.83;;;;;;;22.60;22.49;99550.34;4824295;29;20046;-81
2022/06/07 11:44:43;;;;;;;19.77;3.58;;;;;;;22.51;22.08;99542.31;4823995;29;20129;-84
2022/06/07 11:47:13;;;;;;;21.95;3.28;;;;;;;22.67;20.90;99544.81;4824627;29;20038;-82
2022/06/07 11:49:41;;;;;;;29.50;3.20;;;;;;;22.66;20.08;99552.38;4824669;29;20030;-83
2022/06/07 11:52:14;;;;;;;8.40;2.13;;;;;;;22.38;19.59;99539.03;4839113;29;20050;-84
2022/06/07 11:54:57;;;;;;;40.22;2.63;;;;;;;22.17;20.05;99547.25;4807848;29;20041;-83
2022/06/07 11:57:40;;;;;;;25.67;2.50;;;;;;;22.02;19.42;99549.09;4823622;29;20054;-83
2022/06/07 12:00:19;;;;;;;20.23;3.50;;;;;;;22.37;19.81;99547.81;4822729;29;20141;-86
2022/06/07 12:02:57;;;;;;;18.73;2.85;;;;;;;22.30;18.52;99542.97;4823890;29;20592;-83
2022/06/07 12:05:32;;;;;;;19.58;2.63;;;;;;;22.44;19.36;99537.50;4818331;29;20070;-84
2022/06/07 12:08:23;;;;;;;23.17;2.90;;;;;;;22.16;19.10;99526.97;4819785;29;20041;-83
2022/06/07 12:11:04;;;;;;;17.77;2.65;;;;;;;22.01;19.12;99533.56;4812874;29;20054;-82
2022/06/07 12:13:56;;;;;;;26.20;3.50;;;;;;;21.95;18.97;99532.31;4805583;29;20038;-82
2022/06/07 12:16:38;;;;;;;15.93;2.83;;;;;;;22.02;20.00;99524.03;4823195;29;20046;-86
2022/06/07 12:19:21;;;;;;;14.02;3.08;;;;;;;22.06;19.48;99524.88;4807735;29;20073;-83
2022/06/07 12:21:56;;;;;;;25.60;3.22;;;;;;;22.40;19.21;99524.75;4823560;29;20066;-83
2022/06/07 12:24:26;;;;;;;15.02;2.20;;;;;;;22.74;19.84;99516.97;4823725;29;20121;-86
2022/06/07 12:26:52;;;;;;;9.07;2.28;;;;;;;22.51;18.75;99492.97;4808126;29;20052;-86
2022/06/07 12:38:13;;;;;;;18.35;3.42;;;;;;;22.55;20.26;99504.16;4860149;29;19928;-87
2022/06/07 12:43:51;;;;;;;4.22;1.88;;;;;;;22.69;19.96;99498.66;5036041;23;20057;-86
2022/06/07 12:46:21;;;;;;;18.88;3.55;;;;;;;22.94;20.30;99493.22;4861794;29;20093;-85
2022/06/07 12:48:47;;;;;;;27.60;2.83;;;;;;;23.23;20.40;99509.25;4861336;29;20105;-83
2022/06/07 12:51:20;;;;;;;13.55;2.67;;;;;;;23.10;19.24;99498.44;4855638;29;20057;-86
2022/06/07 12:53:58;;;;;;;10.77;2.20;;;;;;;23.24;20.43;99496.91;4826321;29;20054;-85
2022/06/07 12:56:28;;;;;;;8.52;2.55;;;;;;;23.32;19.16;99490.97;4843025;29;20045;-86